Time;durP1;ratioP1;P1;durP2;ratioP2;P2;SDS_P1;SDS_P2;PMS_P1;PMS_P2;Temp;Humidity;BMP_temperature;BMP_pressure;BME280_temperature;BME280_humidity;BME280_pressure;Samples;Min_cycle;Max_cycle;Signal;HPM_P1;HPM_P2
2022/01/19 00:01:21;;;;;;;71.50;29.00;;;5.30;99.90;;;;;;5089989;28;20028;-90
2022/01/19 00:03:47;;;;;;;66.97;26.52;;;5.30;99.90;;;;;;5089727;28;20042;-90
2022/01/19 00:06:13;;;;;;;62.40;27.13;;;5.30;99.90;;;;;;5091208;28;20127;-90
2022/01/19 00:08:38;;;;;;;58.65;25.42;;;5.30;99.90;;;;;;5095476;28;20035;-90
2022/01/19 00:11:04;;;;;;;61.20;27.17;;;5.40;99.90;;;;;;5114760;28;20074;-90
2022/01/19 00:13:30;;;;;;;59.53;28.55;;;5.30;99.90;;;;;;5097202;28;20609;-90
2022/01/19 00:15:56;;;;;;;66.15;26.30;;;5.30;99.90;;;;;;5114676;28;20032;-91
2022/01/19 00:18:23;;;;;;;62.55;26.38;;;5.40;99.90;;;;;;5097583;28;20493;-90
2022/01/19 00:20:50;;;;;;;62.83;26.08;;;5.40;99.90;;;;;;5114537;28;20118;-90
2022/01/19 00:23:16;;;;;;;59.80;25.75;;;5.40;99.90;;;;;;5114382;28;20126;-90
2022/01/19 00:25:49;;;;;;;58.88;25.63;;;5.40;99.90;;;;;;5114452;28;20127;-90
2022/01/19 00:28:15;;;;;;;59.35;26.15;;;5.40;99.90;;;;;;5097331;28;20163;-90
2022/01/19 00:30:42;;;;;;;64.15;27.27;;;5.40;99.90;;;;;;5114000;28;20071;-90
2022/01/19 00:33:08;;;;;;;54.33;24.33;;;5.40;99.90;;;;;;5096857;28;20039;-90
2022/01/19 00:35:37;;;;;;;54.85;24.05;;;5.40;99.90;;;;;;5097128;28;20505;-89
2022/01/19 00:38:03;;;;;;;52.40;24.10;;;5.50;99.90;;;;;;5096759;28;20036;-90
2022/01/19 00:40:29;;;;;;;55.83;25.10;;;5.50;99.90;;;;;;5097052;28;20031;-90
2022/01/19 00:42:55;;;;;;;53.47;24.58;;;5.50;99.90;;;;;;5097753;28;20522;-90
2022/01/19 00:45:21;;;;;;;56.92;24.90;;;5.50;99.90;;;;;;5097952;28;20614;-90
2022/01/19 00:47:47;;;;;;;52.30;23.48;;;5.50;99.90;;;;;;5132432;28;20023;-90
2022/01/19 00:50:17;;;;;;;43.78;21.50;;;5.50;99.90;;;;;;5122279;28;20100;-90
2022/01/19 00:52:43;;;;;;;45.85;22.90;;;5.50;99.90;;;;;;5124954;28;20035;-91
2022/01/19 00:55:12;;;;;;;44.92;22.92;;;5.50;99.90;;;;;;5107842;28;20047;-91
2022/01/19 00:57:38;;;;;;;51.47;22.98;;;5.50;99.90;;;;;;5126762;28;20059;-90
2022/01/19 01:00:06;;;;;;;54.90;26.00;;;5.40;99.90;;;;;;5102713;28;20044;-90
2022/01/19 01:02:32;;;;;;;46.85;22.27;;;5.50;99.90;;;;;;5114383;28;20051;-91
2022/01/19 01:04:57;;;;;;;44.17;21.75;;;5.50;99.90;;;;;;5113547;28;20580;-90
2022/01/19 01:07:24;;;;;;;44.13;23.00;;;5.40;99.90;;;;;;5112492;28;20043;-90
2022/01/19 01:09:49;;;;;;;53.25;24.48;;;5.40;99.90;;;;;;5113587;28;20126;-91
2022/01/19 01:12:22;;;;;;;46.15;22.17;;;5.30;99.90;;;;;;5096069;28;20124;-90
2022/01/19 01:20:19;;;;;;;43.50;23.05;;;5.30;99.90;;;;;;5101829;28;20461;-91
2022/01/19 01:22:46;;;;;;;49.17;22.73;;;5.20;99.90;;;;;;5102044;28;20039;-91
2022/01/19 01:25:12;;;;;;;48.63;23.15;;;5.20;99.90;;;;;;5103480;28;20050;-91
2022/01/19 01:27:37;;;;;;;47.03;23.30;;;5.20;99.90;;;;;;5101698;28;20521;-90
2022/01/19 01:30:05;;;;;;;52.30;24.98;;;5.10;99.90;;;;;;5102380;28;20081;-90
2022/01/19 01:32:31;;;;;;;48.10;21.13;;;5.10;99.90;;;;;;5086076;28;20035;-91
2022/01/19 01:34:57;;;;;;;39.63;19.02;;;5.10;99.90;;;;;;5101177;28;20040;-91
2022/01/19 01:37:22;;;;;;;42.50;18.83;;;5.00;99.90;;;;;;5102516;28;20024;-90
2022/01/19 01:39:48;;;;;;;41.55;20.90;;;4.90;99.90;;;;;;5103013;28;20032;-90
2022/01/19 01:42:17;;;;;;;45.38;23.30;;;4.80;99.90;;;;;;5083348;28;20062;-90
2022/01/19 01:44:46;;;;;;;60.67;24.05;;;4.80;99.90;;;;;;5084817;28;20283;-90
2022/01/19 01:47:15;;;;;;;45.08;21.30;;;4.90;99.90;;;;;;5085873;28;20040;-91
2022/01/19 01:54:50;;;;;;;51.25;23.77;;;4.80;99.90;;;;;;5102317;28;20040;-91
2022/01/19 01:57:16;;;;;;;48.90;23.10;;;4.80;99.90;;;;;;5083789;28;20126;-90
2022/01/19 01:59:42;;;;;;;44.03;22.50;;;4.80;99.90;;;;;;5086935;28;20081;-90
2022/01/19 02:02:07;;;;;;;51.63;21.83;;;4.80;99.90;;;;;;5086071;28;20036;-91
2022/01/19 02:04:34;;;;;;;51.78;21.70;;;4.80;99.90;;;;;;5074594;28;20417;-91
2022/01/19 02:09:49;;;;;;;42.22;20.45;;;4.70;99.90;;;;;;5112500;28;20047;-90
2022/01/19 02:23:35;;;;;;;40.05;20.13;;;4.30;99.90;;;;;;5111958;28;20110;-91
2022/01/19 02:26:05;;;;;;;40.47;18.08;;;4.20;99.90;;;;;;5094581;28;20497;-91
2022/01/19 02:36:52;;;;;;;39.25;18.35;;;3.90;99.90;;;;;;5111268;28;20539;-91
2022/01/19 02:42:25;;;;;;;47.53;19.58;;;3.90;99.90;;;;;;5052830;28;20054;-89
2022/01/19 02:49:48;;;;;;;69.43;23.80;;;3.90;99.90;;;;;;5111553;28;20043;-90
2022/01/19 02:52:14;;;;;;;56.53;22.00;;;4.00;99.90;;;;;;5111177;28;20085;-90
2022/01/19 02:54:40;;;;;;;48.67;21.25;;;4.00;99.90;;;;;;5094290;28;20027;-90
2022/01/19 02:57:09;;;;;;;51.92;22.85;;;4.00;99.90;;;;;;5094200;28;20085;-90
2022/01/19 03:10:22;;;;;;;170.48;23.88;;;4.10;99.90;;;;;;5111079;28;20047;-90
2022/01/19 03:12:47;;;;;;;129.55;22.05;;;4.10;99.90;;;;;;5110848;28;20110;-90
2022/01/19 03:15:14;;;;;;;115.60;22.25;;;4.00;99.90;;;;;;5110993;28;20047;-90
2022/01/19 03:17:40;;;;;;;123.05;21.80;;;4.00;99.90;;;;;;5110776;28;20047;-89
2022/01/19 03:20:08;;;;;;;393.02;31.40;;;3.90;99.90;;;;;;5093886;28;20040;-90
2022/01/19 03:22:40;;;;;;;266.98;26.38;;;3.90;99.90;;;;;;5093720;28;20093;-90
2022/01/19 03:25:12;;;;;;;182.82;21.92;;;3.80;99.90;;;;;;5093773;28;20493;-91
2022/01/19 03:27:47;;;;;;;219.98;25.27;;;3.80;99.90;;;;;;5111481;28;20097;-90
2022/01/19 03:30:14;;;;;;;235.80;25.70;;;3.70;99.90;;;;;;5111025;28;20048;-91
2022/01/19 03:32:40;;;;;;;249.00;25.92;;;3.70;99.90;;;;;;5093411;28;20035;-90
2022/01/19 03:35:06;;;;;;;266.52;27.17;;;3.70;99.90;;;;;;5094090;28;20092;-90
2022/01/19 03:37:32;;;;;;;229.80;24.48;;;3.70;99.90;;;;;;5111734;28;20067;-90
2022/01/19 03:39:57;;;;;;;172.73;20.80;;;3.60;99.90;;;;;;5111451;28;20078;-90
2022/01/19 03:42:23;;;;;;;257.10;24.38;;;3.60;99.90;;;;;;5099461;28;20047;-90
2022/01/19 03:44:49;;;;;;;141.02;19.33;;;3.50;99.90;;;;;;5102068;28;20048;-90
2022/01/19 03:47:17;;;;;;;115.65;18.10;;;3.50;99.90;;;;;;5093776;28;20093;-91
2022/01/19 03:49:42;;;;;;;128.88;17.45;;;3.40;99.90;;;;;;5110784;28;20047;-91
2022/01/19 03:52:08;;;;;;;95.70;15.77;;;3.40;99.90;;;;;;5110731;28;20036;-91
2022/01/19 03:54:42;;;;;;;106.10;17.00;;;3.30;99.90;;;;;;5093506;28;20511;-90
2022/01/19 03:57:09;;;;;;;124.55;16.05;;;3.30;99.90;;;;;;5093843;28;20397;-90
2022/01/19 03:59:35;;;;;;;212.52;20.70;;;3.20;99.90;;;;;;5093806;28;20673;-91
2022/01/19 04:02:01;;;;;;;206.95;20.80;;;3.20;99.90;;;;;;5110785;28;20050;-90
2022/01/19 04:09:24;;;;;;;98.75;14.18;;;3.10;99.90;;;;;;5110387;28;20043;-90
2022/01/19 04:11:50;;;;;;;132.30;14.35;;;3.00;99.90;;;;;;5110321;28;20035;-91
2022/01/19 04:14:22;;;;;;;118.38;15.50;;;3.00;99.90;;;;;;5110634;28;20467;-91
2022/01/19 04:16:54;;;;;;;247.27;20.13;;;2.90;99.90;;;;;;5093519;28;20067;-90
2022/01/19 04:19:29;;;;;;;113.15;14.82;;;2.90;99.90;;;;;;5110710;28;20031;-91
2022/01/19 04:21:57;;;;;;;110.45;16.08;;;2.80;99.90;;;;;;5093670;28;20078;-91
2022/01/19 04:24:24;;;;;;;170.07;17.48;;;2.80;99.90;;;;;;5092804;28;20105;-91
2022/01/19 04:29:34;;;;;;;88.00;12.00;;;2.70;99.90;;;;;;5110186;28;20416;-91
2022/01/19 04:32:08;;;;;;;43.70;11.75;;;2.60;99.90;;;;;;5110025;28;20046;-91
2022/01/19 04:34:36;;;;;;;49.47;11.65;;;2.60;99.90;;;;;;5110080;28;20078;-91
2022/01/19 04:37:26;;;;;;;33.75;10.65;;;2.60;99.90;;;;;;5093353;28;20039;-90
2022/01/19 05:06:34;;;;;;;43.85;11.00;;;2.30;99.90;;;;;;5112472;28;20512;-90
2022/01/19 05:09:10;;;;;;;57.22;11.90;;;2.30;99.90;;;;;;5113322;28;20043;-90
2022/01/19 05:14:20;;;;;;;70.88;14.07;;;2.30;99.90;;;;;;5112732;28;20035;-92
2022/01/19 05:16:46;;;;;;;47.22;12.60;;;2.30;99.90;;;;;;5130240;28;20078;-91
2022/01/19 05:19:11;;;;;;;44.58;12.43;;;2.30;99.90;;;;;;5130212;28;20063;-90
2022/01/19 05:21:38;;;;;;;55.42;14.00;;;2.20;99.90;;;;;;5128714;28;20036;-91
2022/01/19 05:24:06;;;;;;;47.67;13.07;;;2.20;99.90;;;;;;5129730;28;20049;-90
2022/01/19 05:26:34;;;;;;;56.15;13.45;;;2.20;99.90;;;;;;5130494;28;20465;-90
2022/01/19 05:29:00;;;;;;;61.17;13.77;;;2.20;99.90;;;;;;5115586;28;20078;-89
2022/01/19 05:31:26;;;;;;;92.82;17.45;;;2.20;99.90;;;;;;5113714;28;20145;-91
2022/01/19 05:33:52;;;;;;;39.45;13.57;;;2.20;99.90;;;;;;5096116;28;20032;-90
2022/01/19 05:36:18;;;;;;;76.57;15.38;;;2.20;99.90;;;;;;5113179;28;20046;-90
2022/01/19 05:38:43;;;;;;;75.80;15.23;;;2.20;99.90;;;;;;5095937;28;20031;-90
2022/01/19 05:41:09;;;;;;;127.47;17.00;;;2.20;99.90;;;;;;5113172;28;20044;-91
2022/01/19 05:43:35;;;;;;;75.45;15.38;;;2.20;99.90;;;;;;5095930;28;20496;-91
2022/01/19 05:46:01;;;;;;;81.85;15.43;;;2.20;99.90;;;;;;5112891;28;20403;-91
2022/01/19 05:48:26;;;;;;;57.40;15.07;;;2.20;99.90;;;;;;5113020;28;20044;-91
2022/01/19 05:50:52;;;;;;;77.35;18.40;;;2.20;99.90;;;;;;5112598;28;20044;-91
2022/01/19 05:53:18;;;;;;;93.60;16.50;;;2.10;99.90;;;;;;5112182;28;20036;-91
2022/01/19 05:55:45;;;;;;;64.18;14.80;;;2.10;99.90;;;;;;5096035;28;20454;-91
2022/01/19 05:58:10;;;;;;;43.95;14.52;;;2.10;99.90;;;;;;5112224;28;20028;-91
2022/01/19 06:00:36;;;;;;;53.42;14.02;;;2.10;99.90;;;;;;5112647;28;20044;-91
2022/01/19 06:03:02;;;;;;;72.20;14.40;;;2.00;99.90;;;;;;5112274;28;20561;-91
2022/01/19 06:05:28;;;;;;;131.18;18.10;;;2.00;99.90;;;;;;5111689;28;20046;-90
2022/01/19 06:08:11;;;;;;;115.25;17.10;;;1.90;99.90;;;;;;5094052;28;20051;-91
2022/01/19 06:10:42;;;;;;;;;;;1.90;99.90;;;;;;5095736;28;20058;-90
2022/01/19 06:13:08;;;;;;;140.80;17.63;;;1.90;99.90;;;;;;5111784;28;19926;-91
2022/01/19 06:15:34;;;;;;;125.65;20.13;;;1.90;99.90;;;;;;5112462;28;20043;-90
2022/01/19 06:17:59;;;;;;;109.28;16.90;;;1.90;99.90;;;;;;5111990;28;20493;-90
2022/01/19 06:20:25;;;;;;;121.13;19.05;;;1.90;99.90;;;;;;5113101;28;20035;-91
2022/01/19 06:22:52;;;;;;;46.78;16.45;;;1.80;99.90;;;;;;5113080;28;20499;-91
2022/01/19 06:25:18;;;;;;;34.50;16.73;;;1.90;99.90;;;;;;5120089;28;20046;-91
2022/01/19 06:27:43;;;;;;;54.10;19.80;;;1.90;99.90;;;;;;5098989;28;20043;-90
2022/01/19 06:30:10;;;;;;;42.08;17.15;;;1.90;99.90;;;;;;5094471;28;20047;-91
2022/01/19 06:32:35;;;;;;;47.28;18.55;;;2.00;99.90;;;;;;5111658;28;20050;-91
2022/01/19 06:35:01;;;;;;;41.65;18.05;;;2.00;99.90;;;;;;5111686;28;20047;-91
2022/01/19 06:37:26;;;;;;;41.17;18.17;;;2.00;99.90;;;;;;5111627;28;20076;-91
2022/01/19 06:39:52;;;;;;;43.25;19.73;;;2.00;99.90;;;;;;5095003;28;20062;-91
2022/01/19 06:42:18;;;;;;;44.88;21.40;;;2.00;99.90;;;;;;5111645;28;20546;-91
2022/01/19 06:44:44;;;;;;;46.10;20.80;;;2.10;99.90;;;;;;5094159;28;20043;-90
2022/01/19 06:47:09;;;;;;;56.38;23.90;;;2.10;99.90;;;;;;5094886;28;20035;-91
2022/01/19 06:49:35;;;;;;;49.10;21.67;;;2.10;99.90;;;;;;5111679;28;20581;-91
2022/01/19 06:52:01;;;;;;;47.10;22.23;;;2.20;99.90;;;;;;5111287;28;20055;-91
2022/01/19 06:54:28;;;;;;;45.88;21.85;;;2.20;99.90;;;;;;5111337;28;20085;-91
2022/01/19 06:56:54;;;;;;;43.17;21.35;;;2.30;99.90;;;;;;5094717;28;20043;-89
2022/01/19 06:59:19;;;;;;;49.72;23.58;;;2.30;99.90;;;;;;5093845;28;20050;-91
2022/01/19 07:01:45;;;;;;;42.38;22.13;;;2.40;99.90;;;;;;5107761;28;20106;-90
2022/01/19 07:04:14;;;;;;;47.05;23.92;;;2.40;99.90;;;;;;5098828;28;20493;-90
2022/01/19 07:06:40;;;;;;;48.03;23.80;;;2.50;99.90;;;;;;5090846;28;20051;-91
2022/01/19 07:09:05;;;;;;;41.53;22.45;;;2.50;99.90;;;;;;5090554;28;20088;-90
2022/01/19 07:11:31;;;;;;;49.00;23.17;;;2.60;99.90;;;;;;5079210;28;20035;-91
2022/01/19 07:13:57;;;;;;;47.55;22.63;;;2.60;99.90;;;;;;5090522;28;20032;-89
2022/01/19 07:16:23;;;;;;;44.38;24.25;;;2.70;99.90;;;;;;5090380;28;20059;-89
2022/01/19 07:18:49;;;;;;;45.13;24.83;;;2.70;99.90;;;;;;5090345;28;20119;-90
2022/01/19 07:21:15;;;;;;;46.70;24.15;;;2.80;99.90;;;;;;5090709;28;20036;-90
2022/01/19 07:23:41;;;;;;;43.38;23.77;;;2.80;99.90;;;;;;5090317;28;20036;-90
2022/01/19 07:26:07;;;;;;;51.67;24.98;;;2.80;99.90;;;;;;5090579;28;20036;-90
2022/01/19 07:28:32;;;;;;;44.20;23.52;;;2.80;99.90;;;;;;5073811;28;20044;-90
2022/01/19 07:30:58;;;;;;;43.70;24.45;;;2.80;99.90;;;;;;5074440;28;20178;-89
2022/01/19 07:33:24;;;;;;;43.72;25.52;;;2.90;99.90;;;;;;5090303;28;20036;-89
2022/01/19 07:35:51;;;;;;;39.55;24.02;;;2.90;99.90;;;;;;5090805;28;20557;-89
2022/01/19 07:38:18;;;;;;;43.60;25.85;;;2.90;99.90;;;;;;5073761;28;20032;-89
2022/01/19 07:40:44;;;;;;;40.97;25.90;;;3.00;99.90;;;;;;5090682;28;20138;-89
2022/01/19 07:43:09;;;;;;;41.33;26.38;;;3.00;99.90;;;;;;5090045;28;20533;-90
2022/01/19 07:45:35;;;;;;;44.20;28.20;;;3.00;99.90;;;;;;5073399;28;20046;-90
2022/01/19 07:48:01;;;;;;;43.78;26.95;;;3.10;99.90;;;;;;5073947;28;20043;-90
2022/01/19 07:50:26;;;;;;;43.65;28.25;;;3.10;99.90;;;;;;5103909;28;20489;-90
2022/01/19 07:52:52;;;;;;;43.08;26.00;;;3.20;99.90;;;;;;5110394;28;20482;-90
2022/01/19 07:55:18;;;;;;;42.55;27.83;;;3.20;99.90;;;;;;5105413;28;20059;-90
2022/01/19 07:57:48;;;;;;;42.25;28.25;;;3.20;99.90;;;;;;5101094;28;20101;-89
2022/01/19 08:00:14;;;;;;;42.20;27.45;;;3.20;99.90;;;;;;5108333;28;20063;-90
2022/01/19 08:02:40;;;;;;;45.05;28.08;;;3.30;99.90;;;;;;5110608;28;20036;-90
2022/01/19 08:05:07;;;;;;;45.58;28.55;;;3.30;99.90;;;;;;5093080;28;20044;-90
2022/01/19 08:07:33;;;;;;;41.42;27.92;;;3.30;99.90;;;;;;5092084;28;20055;-90
2022/01/19 08:10:00;;;;;;;45.72;28.63;;;3.30;99.90;;;;;;5093835;28;20048;-89
2022/01/19 08:12:26;;;;;;;43.15;28.83;;;3.40;99.90;;;;;;5108944;28;20496;-89
2022/01/19 08:14:51;;;;;;;49.40;30.90;;;3.40;99.90;;;;;;5093320;28;20074;-89
2022/01/19 08:17:19;;;;;;;46.88;29.45;;;3.40;99.90;;;;;;5110314;28;20038;-90
2022/01/19 08:19:45;;;;;;;43.70;28.40;;;3.50;99.90;;;;;;5093411;28;20043;-90
2022/01/19 08:22:10;;;;;;;41.38;28.52;;;3.50;99.90;;;;;;5093389;28;20054;-90
2022/01/19 08:24:36;;;;;;;47.00;30.98;;;3.50;99.90;;;;;;5109949;28;20078;-89
2022/01/19 08:27:01;;;;;;;43.83;32.08;;;3.60;99.90;;;;;;5093886;28;20074;-90
2022/01/19 08:29:27;;;;;;;43.88;28.90;;;3.50;99.90;;;;;;5097462;28;20039;-90
2022/01/19 08:31:53;;;;;;;49.70;30.85;;;3.60;99.90;;;;;;5114304;28;20484;-90
2022/01/19 08:34:18;;;;;;;41.67;28.65;;;3.60;99.90;;;;;;5096954;28;20036;-90
2022/01/19 08:36:44;;;;;;;48.30;31.08;;;3.60;99.90;;;;;;5097330;28;20035;-89
2022/01/19 08:39:10;;;;;;;46.72;30.98;;;3.60;99.90;;;;;;5096745;28;20040;-89
2022/01/19 08:41:36;;;;;;;48.72;30.80;;;3.60;99.90;;;;;;5097023;28;20058;-90
2022/01/19 08:44:02;;;;;;;46.17;31.90;;;3.70;99.90;;;;;;5096665;28;20031;-90
2022/01/19 08:46:27;;;;;;;45.17;31.38;;;3.60;99.90;;;;;;5113890;28;20081;-90
2022/01/19 08:48:53;;;;;;;45.55;28.80;;;3.60;99.90;;;;;;5096903;28;20408;-89
2022/01/19 08:51:19;;;;;;;45.95;30.20;;;3.70;99.90;;;;;;5114253;28;20130;-90
2022/01/19 08:53:44;;;;;;;49.30;29.27;;;3.70;99.90;;;;;;5113255;28;20557;-89
2022/01/19 08:56:10;;;;;;;47.80;30.63;;;3.70;99.90;;;;;;5114319;28;20488;-90
2022/01/19 08:58:36;;;;;;;44.78;28.20;;;3.70;99.90;;;;;;5114122;28;20106;-90
2022/01/19 09:01:01;;;;;;;46.45;31.48;;;3.70;99.90;;;;;;5097728;28;20453;-90
2022/01/19 09:03:29;;;;;;;46.97;30.65;;;3.70;99.90;;;;;;5114016;28;20040;-90
2022/01/19 09:05:55;;;;;;;44.28;29.80;;;3.80;99.90;;;;;;5121493;28;20055;-89
2022/01/19 09:08:21;;;;;;;48.60;30.83;;;3.70;99.90;;;;;;5115142;28;20511;-90
2022/01/19 09:10:50;;;;;;;51.88;30.23;;;3.80;99.90;;;;;;5096772;28;20173;-90
2022/01/19 09:13:16;;;;;;;48.72;30.33;;;3.80;99.90;;;;;;5110590;28;20044;-90
2022/01/19 09:15:42;;;;;;;49.20;30.38;;;3.80;99.90;;;;;;5102912;28;20115;-89
2022/01/19 09:18:08;;;;;;;45.50;30.55;;;3.80;99.90;;;;;;5084043;28;20157;-89
2022/01/19 09:20:34;;;;;;;47.08;29.35;;;3.80;99.90;;;;;;5104072;28;20034;-90
2022/01/19 09:23:00;;;;;;;49.42;31.15;;;3.80;99.90;;;;;;5113233;28;20040;-89
2022/01/19 09:25:25;;;;;;;46.45;29.67;;;3.80;99.90;;;;;;5095986;28;20040;-89
2022/01/19 09:27:51;;;;;;;51.92;31.63;;;3.80;99.90;;;;;;5113439;28;20421;-89
2022/01/19 09:30:19;;;;;;;52.58;30.65;;;3.80;99.90;;;;;;5113413;28;20087;-90
2022/01/19 09:32:54;;;;;;;50.97;31.30;;;3.90;99.90;;;;;;5113174;28;20052;-90
2022/01/19 09:35:24;;;;;;;51.92;33.20;;;3.90;99.90;;;;;;5096242;28;20040;-90
2022/01/19 09:37:50;;;;;;;48.13;29.75;;;3.90;99.90;;;;;;5096346;28;20118;-90
2022/01/19 09:40:16;;;;;;;49.03;32.00;;;3.90;99.90;;;;;;5095022;28;20432;-89
2022/01/19 09:42:45;;;;;;;55.00;34.28;;;3.90;99.90;;;;;;5113017;28;20064;-90
2022/01/19 09:45:11;;;;;;;51.20;32.60;;;4.00;99.90;;;;;;5112371;28;20442;-89
2022/01/19 09:47:37;;;;;;;50.25;32.35;;;4.00;99.90;;;;;;5112979;28;20582;-89
2022/01/19 09:50:04;;;;;;;52.45;31.17;;;4.00;99.90;;;;;;5096170;28;20122;-89
2022/01/19 09:52:30;;;;;;;54.25;33.80;;;4.00;99.90;;;;;;5112532;28;20047;-90
2022/01/19 09:54:56;;;;;;;60.00;36.38;;;4.00;99.90;;;;;;5112735;28;20035;-89
2022/01/19 09:57:22;;;;;;;52.58;34.75;;;4.00;99.90;;;;;;5112806;28;20113;-90
2022/01/19 09:59:48;;;;;;;53.33;34.75;;;4.00;99.90;;;;;;5093512;28;20492;-90
2022/01/19 10:02:16;;;;;;;59.13;35.53;;;4.00;99.90;;;;;;5094826;28;20131;-90
2022/01/19 10:04:46;;;;;;;63.15;37.63;;;4.10;99.90;;;;;;5083030;28;20047;-89
2022/01/19 10:07:21;;;;;;;62.42;35.78;;;4.10;99.90;;;;;;5089929;28;20047;-89
2022/01/19 10:09:58;;;;;;;63.95;38.50;;;4.10;99.90;;;;;;5112530;28;20035;-90
2022/01/19 10:18:12;;;;;;;62.63;37.15;;;4.20;99.90;;;;;;5112225;28;20488;-89
2022/01/19 10:20:37;;;;;;;66.45;37.65;;;4.20;99.90;;;;;;5112741;28;20036;-89
2022/01/19 10:23:04;;;;;;;71.88;40.97;;;4.20;99.90;;;;;;5112058;28;20626;-89
2022/01/19 10:25:49;;;;;;;71.47;41.60;;;4.30;99.90;;;;;;5094762;28;20036;-89
2022/01/19 10:28:15;;;;;;;75.18;41.15;;;4.30;99.90;;;;;;5100140;28;20048;-89
2022/01/19 10:30:40;;;;;;;70.40;39.65;;;4.30;99.90;;;;;;5102523;28;20027;-89
2022/01/19 10:33:06;;;;;;;75.05;41.22;;;4.30;99.90;;;;;;5127158;28;20058;-90
2022/01/19 10:35:37;;;;;;;77.70;40.72;;;4.30;99.90;;;;;;5103253;28;20055;-89
2022/01/19 10:38:27;;;;;;;78.60;39.83;;;4.20;99.90;;;;;;5105698;28;20044;-90
2022/01/19 10:40:58;;;;;;;77.57;41.42;;;4.30;99.90;;;;;;5119946;28;20164;-90
2022/01/19 10:43:42;;;;;;;75.32;39.85;;;4.30;99.90;;;;;;5119535;28;20035;-90
2022/01/19 10:46:29;;;;;;;78.50;42.83;;;4.30;99.90;;;;;;5099958;28;20036;-90
2022/01/19 10:49:05;;;;;;;72.22;39.25;;;4.30;99.90;;;;;;5110011;28;20075;-90
2022/01/19 10:51:37;;;;;;;82.53;42.50;;;4.30;99.90;;;;;;5111878;28;20061;-89
2022/01/19 10:54:16;;;;;;;72.47;36.63;;;4.30;99.90;;;;;;5111204;28;20035;-89
2022/01/19 10:56:45;;;;;;;81.40;42.10;;;4.30;99.90;;;;;;5091943;28;20438;-89
2022/01/19 10:59:16;;;;;;;81.25;44.05;;;4.30;99.90;;;;;;5082827;28;20039;-89
2022/01/19 11:01:53;;;;;;;84.47;42.08;;;4.40;99.90;;;;;;5100805;28;20664;-89
2022/01/19 11:04:21;;;;;;;81.50;41.60;;;4.30;99.90;;;;;;5081580;28;20034;-90
2022/01/19 11:06:56;;;;;;;90.35;43.95;;;4.30;99.90;;;;;;5101399;28;20382;-88
2022/01/19 11:09:25;;;;;;;88.97;45.22;;;4.30;99.90;;;;;;5084525;28;20040;-90
2022/01/19 11:11:53;;;;;;;88.05;43.47;;;4.40;99.90;;;;;;5101700;28;20043;-89
2022/01/19 11:14:18;;;;;;;92.15;44.50;;;4.40;99.90;;;;;;5084200;28;20031;-89
2022/01/19 11:16:45;;;;;;;91.18;43.88;;;4.40;99.90;;;;;;5093555;28;20146;-89
2022/01/19 11:19:11;;;;;;;87.63;43.58;;;4.40;99.90;;;;;;5090118;28;20513;-90
2022/01/19 11:21:55;;;;;;;92.80;44.70;;;4.40;99.90;;;;;;5072501;28;20095;-90
2022/01/19 11:24:43;;;;;;;92.47;42.90;;;4.40;99.90;;;;;;5073717;28;20032;-90
2022/01/19 11:27:09;;;;;;;77.15;40.47;;;4.40;99.90;;;;;;5073756;28;20036;-90
2022/01/19 11:29:38;;;;;;;89.95;43.55;;;4.50;99.90;;;;;;5073631;28;20042;-89
2022/01/19 11:32:33;;;;;;;83.90;45.15;;;4.50;99.90;;;;;;5090308;28;20040;-89
2022/01/19 11:34:58;;;;;;;95.07;43.50;;;4.50;99.90;;;;;;5060812;28;20698;-90
2022/01/19 11:37:36;;;;;;;93.30;47.40;;;4.50;99.90;;;;;;5090555;28;20040;-89
2022/01/19 11:40:05;;;;;;;87.00;43.97;;;4.50;99.90;;;;;;5105433;28;20081;-90
2022/01/19 11:42:30;;;;;;;87.78;41.45;;;4.50;99.90;;;;;;5094676;28;20047;-89
2022/01/19 11:44:56;;;;;;;82.03;43.92;;;4.50;99.90;;;;;;5095127;28;20040;-90
2022/01/19 11:47:29;;;;;;;81.78;43.63;;;4.50;99.90;;;;;;5104391;28;20061;-89
2022/01/19 11:50:07;;;;;;;85.93;45.60;;;4.50;99.90;;;;;;5100936;28;20040;-89
2022/01/19 11:52:38;;;;;;;85.68;42.28;;;4.50;99.90;;;;;;5094123;28;20051;-89
2022/01/19 11:55:26;;;;;;;87.72;43.88;;;4.40;99.90;;;;;;5093275;28;20046;-89
2022/01/19 11:58:14;;;;;;;88.15;45.05;;;4.50;99.90;;;;;;5088408;28;20065;-89
2022/01/19 12:00:42;;;;;;;83.35;42.80;;;4.40;99.90;;;;;;5101032;28;20047;-88
2022/01/19 12:03:30;;;;;;;88.82;44.17;;;4.40;99.90;;;;;;5102170;28;20043;-88
2022/01/19 12:05:57;;;;;;;81.28;42.15;;;4.40;99.90;;;;;;5104980;28;20043;-88
2022/01/19 12:08:35;;;;;;;86.80;40.40;;;4.40;99.90;;;;;;5087005;28;20031;-88
2022/01/19 12:11:17;;;;;;;84.05;42.78;;;4.40;99.90;;;;;;5080064;28;20039;-88
2022/01/19 12:14:18;;;;;;;88.07;42.88;;;4.40;99.90;;;;;;5100386;28;20062;-88
2022/01/19 12:16:58;;;;;;;94.75;45.22;;;4.40;99.90;;;;;;5103166;28;20520;-88
2022/01/19 12:19:28;;;;;;;75.00;40.60;;;4.40;99.90;;;;;;5102979;28;20450;-89
2022/01/19 12:22:16;;;;;;;82.18;41.42;;;4.40;99.90;;;;;;5108558;28;20043;-89
2022/01/19 12:24:53;;;;;;;81.32;43.70;;;4.40;99.90;;;;;;5114015;28;20032;-89
2022/01/19 12:27:19;;;;;;;85.38;42.95;;;4.40;99.90;;;;;;5114365;28;20071;-89
2022/01/19 12:29:58;;;;;;;87.22;46.10;;;4.50;99.90;;;;;;5097186;28;20082;-89
2022/01/19 12:32:26;;;;;;;85.25;46.55;;;4.50;99.90;;;;;;5097058;28;20496;-89
2022/01/19 12:34:56;;;;;;;87.57;44.78;;;4.50;99.90;;;;;;5113795;28;20127;-89
2022/01/19 12:37:24;;;;;;;79.40;42.28;;;4.50;99.90;;;;;;5114469;28;20043;-90
2022/01/19 12:39:51;;;;;;;80.03;43.88;;;4.50;99.90;;;;;;5096526;28;20036;-89
2022/01/19 12:42:21;;;;;;;70.13;42.08;;;4.60;99.90;;;;;;5113731;28;20039;-89
2022/01/19 12:44:58;;;;;;;85.68;44.67;;;4.60;99.90;;;;;;5096342;28;20118;-89
2022/01/19 12:47:27;;;;;;;78.25;44.33;;;4.60;99.90;;;;;;5097347;28;20109;-89
2022/01/19 12:49:55;;;;;;;78.03;44.78;;;4.60;99.90;;;;;;5113623;28;20039;-89
2022/01/19 12:52:23;;;;;;;85.75;43.25;;;4.60;99.90;;;;;;5113649;28;20039;-88
2022/01/19 12:54:50;;;;;;;75.70;41.92;;;4.70;99.90;;;;;;5096090;28;20032;-89
2022/01/19 12:57:17;;;;;;;82.25;44.22;;;4.70;99.90;;;;;;5113515;28;20035;-89
2022/01/19 12:59:45;;;;;;;82.80;45.17;;;4.70;99.90;;;;;;5113654;28;20645;-89
2022/01/19 13:02:14;;;;;;;76.15;44.22;;;4.70;99.90;;;;;;5113393;28;20077;-89
2022/01/19 13:04:42;;;;;;;81.30;45.92;;;4.70;99.90;;;;;;5113242;28;20035;-89
2022/01/19 13:07:20;;;;;;;78.68;45.10;;;4.70;99.90;;;;;;5111625;28;20047;-89
2022/01/19 13:12:56;;;;;;;84.63;45.45;;;4.80;99.90;;;;;;5113365;28;20454;-89
2022/01/19 13:15:41;;;;;;;76.07;42.85;;;4.80;99.90;;;;;;5095148;28;20488;-89
2022/01/19 13:18:07;;;;;;;75.57;43.55;;;4.80;99.90;;;;;;5096476;28;20504;-88
2022/01/19 13:20:33;;;;;;;71.15;41.55;;;4.80;99.90;;;;;;5113346;28;20070;-88
2022/01/19 13:22:59;;;;;;;74.57;41.15;;;4.80;99.90;;;;;;5096084;28;20453;-89
2022/01/19 13:25:30;;;;;;;75.57;44.13;;;4.80;99.90;;;;;;5095644;28;20079;-89
2022/01/19 13:27:59;;;;;;;76.97;43.70;;;4.80;99.90;;;;;;5112744;28;20043;-89
2022/01/19 13:30:29;;;;;;;84.57;47.15;;;4.80;99.90;;;;;;5096119;28;20043;-89
2022/01/19 13:32:56;;;;;;;77.25;44.85;;;4.80;99.90;;;;;;5112723;28;20043;-89
2022/01/19 13:35:25;;;;;;;75.90;43.28;;;4.80;99.90;;;;;;5112673;28;20039;-90
2022/01/19 13:37:55;;;;;;;72.30;43.75;;;4.80;99.90;;;;;;5095760;28;20088;-89
2022/01/19 13:40:26;;;;;;;73.35;42.97;;;4.90;99.90;;;;;;5096092;28;20081;-88
2022/01/19 13:43:01;;;;;;;73.65;41.53;;;4.90;99.90;;;;;;5112616;28;20047;-88
2022/01/19 13:50:37;;;;;;;68.20;40.70;;;4.90;99.90;;;;;;5112969;28;20048;-89
2022/01/19 13:53:03;;;;;;;69.65;43.28;;;4.90;99.90;;;;;;5111982;28;20089;-89
2022/01/19 13:55:29;;;;;;;80.63;43.58;;;5.00;99.90;;;;;;5113102;28;20079;-89
2022/01/19 13:58:13;;;;;;;74.95;44.03;;;4.90;99.90;;;;;;5112731;28;20488;-89
2022/01/19 14:00:52;;;;;;;67.38;40.90;;;5.00;99.90;;;;;;5095424;28;20067;-89
2022/01/19 14:03:21;;;;;;;71.63;42.22;;;5.00;99.90;;;;;;5094970;28;20495;-89
2022/01/19 14:05:52;;;;;;;79.68;42.72;;;5.00;99.90;;;;;;5112139;28;20048;-88
2022/01/19 14:08:32;;;;;;;67.18;40.15;;;5.00;99.90;;;;;;5094327;28;20039;-88
2022/01/19 14:10:58;;;;;;;64.90;39.45;;;5.00;99.90;;;;;;5095204;28;20046;-90
2022/01/19 14:13:37;;;;;;;64.72;39.42;;;5.00;99.90;;;;;;5111521;28;20042;-89
2022/01/19 14:16:26;;;;;;;66.90;38.60;;;5.00;99.90;;;;;;5112363;28;20075;-89
2022/01/19 14:19:07;;;;;;;72.00;41.13;;;5.00;99.90;;;;;;5112034;28;20118;-89
2022/01/19 14:21:33;;;;;;;63.92;39.20;;;5.00;99.90;;;;;;5111069;28;20039;-89
2022/01/19 14:23:59;;;;;;;69.30;41.75;;;5.10;99.90;;;;;;5074048;28;20640;-89
2022/01/19 14:26:25;;;;;;;63.63;38.92;;;5.10;99.90;;;;;;5091251;28;20429;-89